Terminal Aerodrome Forecast
Issued by NWS Billings, MT

Home | Current Version | Previous Version | Text Only | Print | Product List | Glossary On
Versions: 1 2 3 4 5 6 7 8 9 10 11 12 13 14 15 16 17 18 19 20 21 22 23 24 25 26 27 28 29 30 31 32 33 34 35 36 37 38 39 40 41 42
000
FTUS45 KBYZ 222337
TAFBIL
TAF
KBIL 222337Z 2300/2324 06007KT 3SM -SN BR SCT003 BKN009 OVC015
      TEMPO 2300/2302 1/2SM SN FG BKN003 OVC009
     FM230200 03008KT 2SM -SN BR SCT003 BKN007 OVC012
     FM231300 03012KT 1SM -SN BR SCT003 OVC007=

USA.gov is the U.S. government's official web portal to all federal, state and local government web resources and services.